sensor_id;sensor_type;location;lat;lon;timestamp;P1;durP1;ratioP1;P2;durP2;ratioP2
62990;SDS011;49084;48.204;16.202;2023-04-28T00:00:11;10.13;;;5.18;;
62990;SDS011;49084;48.204;16.202;2023-04-28T00:02:37;7.82;;;4.63;;
62990;SDS011;49084;48.204;16.202;2023-04-28T00:05:03;9.00;;;4.45;;
62990;SDS011;49084;48.204;16.202;2023-04-28T00:07:30;6.28;;;4.00;;
62990;SDS011;49084;48.204;16.202;2023-04-28T00:09:56;8.95;;;4.70;;
62990;SDS011;49084;48.204;16.202;2023-04-28T00:12:21;8.75;;;4.05;;
62990;SDS011;49084;48.204;16.202;2023-04-28T00:14:48;11.93;;;4.63;;
62990;SDS011;49084;48.204;16.202;2023-04-28T00:17:13;7.72;;;4.32;;
62990;SDS011;49084;48.204;16.202;2023-04-28T00:19:39;6.03;;;4.38;;
62990;SDS011;49084;48.204;16.202;2023-04-28T00:22:06;7.60;;;4.88;;
62990;SDS011;49084;48.204;16.202;2023-04-28T00:24:31;13.55;;;4.90;;
62990;SDS011;49084;48.204;16.202;2023-04-28T00:26:57;10.00;;;4.57;;
62990;SDS011;49084;48.204;16.202;2023-04-28T00:29:23;7.90;;;4.50;;
62990;SDS011;49084;48.204;16.202;2023-04-28T00:31:49;8.82;;;5.03;;
62990;SDS011;49084;48.204;16.202;2023-04-28T00:34:14;10.70;;;4.95;;
62990;SDS011;49084;48.204;16.202;2023-04-28T00:36:40;9.20;;;5.10;;
62990;SDS011;49084;48.204;16.202;2023-04-28T00:39:06;8.55;;;5.50;;
62990;SDS011;49084;48.204;16.202;2023-04-28T00:41:33;8.55;;;4.97;;
62990;SDS011;49084;48.204;16.202;2023-04-28T00:43:59;11.15;;;5.25;;
62990;SDS011;49084;48.204;16.202;2023-04-28T00:46:26;6.30;;;4.45;;
62990;SDS011;49084;48.204;16.202;2023-04-28T00:48:54;9.20;;;4.78;;
62990;SDS011;49084;48.204;16.202;2023-04-28T00:51:20;8.35;;;4.85;;
62990;SDS011;49084;48.204;16.202;2023-04-28T00:53:46;12.10;;;5.18;;
62990;SDS011;49084;48.204;16.202;2023-04-28T00:56:12;11.30;;;5.25;;
62990;SDS011;49084;48.204;16.202;2023-04-28T00:58:38;8.95;;;5.38;;
62990;SDS011;49084;48.204;16.202;2023-04-28T01:01:05;8.65;;;5.13;;
62990;SDS011;49084;48.204;16.202;2023-04-28T01:03:37;7.38;;;5.18;;
62990;SDS011;49084;48.204;16.202;2023-04-28T01:06:05;10.75;;;5.13;;
62990;SDS011;49084;48.204;16.202;2023-04-28T01:08:32;9.82;;;5.15;;
62990;SDS011;49084;48.204;16.202;2023-04-28T01:10:59;14.18;;;6.85;;
62990;SDS011;49084;48.204;16.202;2023-04-28T01:13:25;11.10;;;5.30;;
62990;SDS011;49084;48.204;16.202;2023-04-28T01:15:51;9.10;;;5.15;;
62990;SDS011;49084;48.204;16.202;2023-04-28T01:18:19;7.93;;;5.15;;
62990;SDS011;49084;48.204;16.202;2023-04-28T01:20:44;10.65;;;5.38;;
62990;SDS011;49084;48.204;16.202;2023-04-28T01:23:11;8.43;;;5.68;;
62990;SDS011;49084;48.204;16.202;2023-04-28T01:25:37;15.50;;;5.03;;
62990;SDS011;49084;48.204;16.202;2023-04-28T01:28:03;9.27;;;5.50;;
62990;SDS011;49084;48.204;16.202;2023-04-28T01:30:29;12.25;;;5.32;;
62990;SDS011;49084;48.204;16.202;2023-04-28T01:32:54;13.98;;;5.15;;
62990;SDS011;49084;48.204;16.202;2023-04-28T01:35:20;9.77;;;5.45;;
62990;SDS011;49084;48.204;16.202;2023-04-28T01:37:46;10.18;;;5.40;;
62990;SDS011;49084;48.204;16.202;2023-04-28T01:40:11;7.32;;;4.82;;
62990;SDS011;49084;48.204;16.202;2023-04-28T01:42:37;8.55;;;5.05;;
62990;SDS011;49084;48.204;16.202;2023-04-28T01:45:03;8.70;;;5.25;;
62990;SDS011;49084;48.204;16.202;2023-04-28T01:47:29;7.40;;;5.15;;
62990;SDS011;49084;48.204;16.202;2023-04-28T01:49:55;10.38;;;5.47;;
62990;SDS011;49084;48.204;16.202;2023-04-28T01:52:21;11.45;;;5.35;;
62990;SDS011;49084;48.204;16.202;2023-04-28T01:54:48;7.43;;;4.85;;
62990;SDS011;49084;48.204;16.202;2023-04-28T01:57:14;10.90;;;4.95;;
62990;SDS011;49084;48.204;16.202;2023-04-28T01:59:40;12.20;;;5.22;;
62990;SDS011;49084;48.204;16.202;2023-04-28T02:02:06;10.00;;;5.10;;
62990;SDS011;49084;48.204;16.202;2023-04-28T02:04:31;6.93;;;4.93;;
62990;SDS011;49084;48.204;16.202;2023-04-28T02:06:57;8.50;;;5.43;;
62990;SDS011;49084;48.204;16.202;2023-04-28T02:09:23;9.27;;;5.50;;
62990;SDS011;49084;48.204;16.202;2023-04-28T02:11:48;10.02;;;5.32;;
62990;SDS011;49084;48.204;16.202;2023-04-28T02:14:15;13.07;;;5.63;;
62990;SDS011;49084;48.204;16.202;2023-04-28T02:16:41;7.65;;;5.18;;
62990;SDS011;49084;48.204;16.202;2023-04-28T02:19:06;10.65;;;5.90;;
62990;SDS011;49084;48.204;16.202;2023-04-28T02:21:32;11.88;;;5.80;;
62990;SDS011;49084;48.204;16.202;2023-04-28T02:23:58;7.70;;;5.85;;
62990;SDS011;49084;48.204;16.202;2023-04-28T02:26:23;9.07;;;6.22;;
62990;SDS011;49084;48.204;16.202;2023-04-28T02:28:49;10.70;;;6.10;;
62990;SDS011;49084;48.204;16.202;2023-04-28T02:31:15;12.02;;;6.10;;
62990;SDS011;49084;48.204;16.202;2023-04-28T02:33:41;13.13;;;6.07;;
62990;SDS011;49084;48.204;16.202;2023-04-28T02:36:07;14.50;;;6.05;;
62990;SDS011;49084;48.204;16.202;2023-04-28T02:38:33;9.95;;;5.80;;
62990;SDS011;49084;48.204;16.202;2023-04-28T02:40:59;11.38;;;6.10;;
62990;SDS011;49084;48.204;16.202;2023-04-28T02:43:27;10.98;;;6.07;;
62990;SDS011;49084;48.204;16.202;2023-04-28T02:45:53;9.15;;;5.75;;
62990;SDS011;49084;48.204;16.202;2023-04-28T02:48:19;11.82;;;6.53;;
62990;SDS011;49084;48.204;16.202;2023-04-28T02:50:44;11.13;;;6.00;;
62990;SDS011;49084;48.204;16.202;2023-04-28T02:53:11;13.18;;;5.85;;
62990;SDS011;49084;48.204;16.202;2023-04-28T02:55:36;13.15;;;6.25;;
62990;SDS011;49084;48.204;16.202;2023-04-28T02:58:02;11.50;;;6.10;;
62990;SDS011;49084;48.204;16.202;2023-04-28T03:00:28;11.23;;;6.30;;
62990;SDS011;49084;48.204;16.202;2023-04-28T03:02:53;12.48;;;6.28;;
62990;SDS011;49084;48.204;16.202;2023-04-28T03:05:19;12.52;;;6.65;;
62990;SDS011;49084;48.204;16.202;2023-04-28T03:07:45;14.23;;;5.85;;
62990;SDS011;49084;48.204;16.202;2023-04-28T03:10:10;10.32;;;5.93;;
62990;SDS011;49084;48.204;16.202;2023-04-28T03:12:36;11.45;;;5.65;;
62990;SDS011;49084;48.204;16.202;2023-04-28T03:15:02;8.20;;;5.53;;
62990;SDS011;49084;48.204;16.202;2023-04-28T03:17:28;9.13;;;5.60;;
62990;SDS011;49084;48.204;16.202;2023-04-28T03:19:53;9.55;;;5.60;;
62990;SDS011;49084;48.204;16.202;2023-04-28T03:22:19;13.50;;;6.05;;
62990;SDS011;49084;48.204;16.202;2023-04-28T03:24:45;11.52;;;6.35;;
62990;SDS011;49084;48.204;16.202;2023-04-28T03:27:11;11.13;;;6.45;;
62990;SDS011;49084;48.204;16.202;2023-04-28T03:29:36;10.57;;;6.03;;
62990;SDS011;49084;48.204;16.202;2023-04-28T03:32:02;11.30;;;6.03;;
62990;SDS011;49084;48.204;16.202;2023-04-28T03:34:27;10.63;;;6.72;;
62990;SDS011;49084;48.204;16.202;2023-04-28T03:36:53;11.80;;;7.03;;
62990;SDS011;49084;48.204;16.202;2023-04-28T03:39:19;17.38;;;7.82;;
62990;SDS011;49084;48.204;16.202;2023-04-28T03:41:44;17.50;;;7.63;;
62990;SDS011;49084;48.204;16.202;2023-04-28T03:44:10;13.00;;;7.72;;
62990;SDS011;49084;48.204;16.202;2023-04-28T03:46:36;13.48;;;8.25;;
62990;SDS011;49084;48.204;16.202;2023-04-28T03:49:01;16.88;;;8.40;;
62990;SDS011;49084;48.204;16.202;2023-04-28T03:51:28;14.93;;;7.72;;
62990;SDS011;49084;48.204;16.202;2023-04-28T03:53:54;16.17;;;8.18;;
62990;SDS011;49084;48.204;16.202;2023-04-28T03:56:20;20.27;;;8.32;;
62990;SDS011;49084;48.204;16.202;2023-04-28T03:58:45;11.80;;;7.57;;
62990;SDS011;49084;48.204;16.202;2023-04-28T04:01:11;13.90;;;8.15;;
62990;SDS011;49084;48.204;16.202;2023-04-28T04:03:37;19.55;;;8.52;;
62990;SDS011;49084;48.204;16.202;2023-04-28T04:06:03;15.80;;;7.55;;
62990;SDS011;49084;48.204;16.202;2023-04-28T04:08:29;15.60;;;8.70;;
62990;SDS011;49084;48.204;16.202;2023-04-28T04:10:56;14.32;;;7.43;;
62990;SDS011;49084;48.204;16.202;2023-04-28T04:13:22;19.13;;;8.65;;
62990;SDS011;49084;48.204;16.202;2023-04-28T04:15:48;20.17;;;8.27;;
62990;SDS011;49084;48.204;16.202;2023-04-28T04:18:14;21.13;;;8.63;;
62990;SDS011;49084;48.204;16.202;2023-04-28T04:20:40;14.00;;;8.57;;
62990;SDS011;49084;48.204;16.202;2023-04-28T04:23:06;15.50;;;7.80;;
62990;SDS011;49084;48.204;16.202;2023-04-28T04:25:31;10.65;;;7.53;;
62990;SDS011;49084;48.204;16.202;2023-04-28T04:27:58;16.45;;;8.40;;
62990;SDS011;49084;48.204;16.202;2023-04-28T04:30:23;15.52;;;8.05;;
62990;SDS011;49084;48.204;16.202;2023-04-28T04:32:49;18.02;;;8.13;;
62990;SDS011;49084;48.204;16.202;2023-04-28T04:35:15;18.63;;;7.70;;
62990;SDS011;49084;48.204;16.202;2023-04-28T04:37:41;12.90;;;7.35;;
62990;SDS011;49084;48.204;16.202;2023-04-28T04:40:07;18.15;;;8.10;;
62990;SDS011;49084;48.204;16.202;2023-04-28T04:42:33;11.43;;;7.10;;
62990;SDS011;49084;48.204;16.202;2023-04-28T04:44:58;24.35;;;8.90;;
62990;SDS011;49084;48.204;16.202;2023-04-28T04:47:24;16.60;;;7.78;;
62990;SDS011;49084;48.204;16.202;2023-04-28T04:49:50;17.20;;;7.97;;
62990;SDS011;49084;48.204;16.202;2023-04-28T04:52:17;14.55;;;7.72;;
62990;SDS011;49084;48.204;16.202;2023-04-28T04:54:43;20.92;;;8.52;;
62990;SDS011;49084;48.204;16.202;2023-04-28T04:57:09;13.18;;;7.53;;
62990;SDS011;49084;48.204;16.202;2023-04-28T04:59:35;16.80;;;8.05;;
62990;SDS011;49084;48.204;16.202;2023-04-28T05:02:01;33.58;;;9.55;;
62990;SDS011;49084;48.204;16.202;2023-04-28T05:04:27;77.05;;;12.80;;
62990;SDS011;49084;48.204;16.202;2023-04-28T05:06:53;38.83;;;9.25;;
62990;SDS011;49084;48.204;16.202;2023-04-28T05:09:18;94.60;;;16.48;;
62990;SDS011;49084;48.204;16.202;2023-04-28T05:11:44;56.67;;;10.07;;
62990;SDS011;49084;48.204;16.202;2023-04-28T05:14:10;31.35;;;11.50;;
62990;SDS011;49084;48.204;16.202;2023-04-28T05:16:36;36.72;;;10.93;;
62990;SDS011;49084;48.204;16.202;2023-04-28T05:19:03;46.63;;;10.20;;
62990;SDS011;49084;48.204;16.202;2023-04-28T05:21:28;17.33;;;7.95;;
62990;SDS011;49084;48.204;16.202;2023-04-28T05:23:55;16.55;;;7.70;;
62990;SDS011;49084;48.204;16.202;2023-04-28T05:26:21;18.92;;;7.43;;
62990;SDS011;49084;48.204;16.202;2023-04-28T05:28:47;13.75;;;7.35;;
62990;SDS011;49084;48.204;16.202;2023-04-28T05:31:13;24.95;;;8.05;;
62990;SDS011;49084;48.204;16.202;2023-04-28T05:33:39;16.45;;;8.40;;
62990;SDS011;49084;48.204;16.202;2023-04-28T05:36:05;71.65;;;10.73;;
62990;SDS011;49084;48.204;16.202;2023-04-28T05:38:31;30.92;;;8.32;;
62990;SDS011;49084;48.204;16.202;2023-04-28T05:40:57;25.30;;;7.97;;
62990;SDS011;49084;48.204;16.202;2023-04-28T05:43:23;28.00;;;8.23;;
62990;SDS011;49084;48.204;16.202;2023-04-28T05:45:49;40.45;;;9.52;;
62990;SDS011;49084;48.204;16.202;2023-04-28T05:48:14;30.63;;;8.38;;
62990;SDS011;49084;48.204;16.202;2023-04-28T05:50:40;66.32;;;9.75;;
62990;SDS011;49084;48.204;16.202;2023-04-28T05:53:06;22.95;;;8.65;;
62990;SDS011;49084;48.204;16.202;2023-04-28T05:55:32;22.35;;;7.18;;
62990;SDS011;49084;48.204;16.202;2023-04-28T05:58:00;17.37;;;6.73;;
62990;SDS011;49084;48.204;16.202;2023-04-28T06:00:28;11.80;;;6.65;;
62990;SDS011;49084;48.204;16.202;2023-04-28T06:02:54;12.02;;;6.85;;
62990;SDS011;49084;48.204;16.202;2023-04-28T06:05:20;16.08;;;6.97;;
62990;SDS011;49084;48.204;16.202;2023-04-28T06:07:46;8.95;;;5.90;;
62990;SDS011;49084;48.204;16.202;2023-04-28T06:10:12;11.40;;;6.10;;
62990;SDS011;49084;48.204;16.202;2023-04-28T06:12:38;14.43;;;6.88;;
62990;SDS011;49084;48.204;16.202;2023-04-28T06:15:04;24.63;;;7.03;;
62990;SDS011;49084;48.204;16.202;2023-04-28T06:17:30;16.15;;;7.07;;
62990;SDS011;49084;48.204;16.202;2023-04-28T06:19:57;22.23;;;6.25;;
62990;SDS011;49084;48.204;16.202;2023-04-28T06:22:23;10.52;;;5.97;;
62990;SDS011;49084;48.204;16.202;2023-04-28T06:24:49;9.27;;;5.97;;
62990;SDS011;49084;48.204;16.202;2023-04-28T06:27:15;10.07;;;5.80;;
62990;SDS011;49084;48.204;16.202;2023-04-28T06:29:41;20.20;;;6.60;;
62990;SDS011;49084;48.204;16.202;2023-04-28T06:32:07;22.25;;;6.45;;
62990;SDS011;49084;48.204;16.202;2023-04-28T06:34:33;12.50;;;5.43;;
62990;SDS011;49084;48.204;16.202;2023-04-28T06:36:59;13.63;;;5.50;;
62990;SDS011;49084;48.204;16.202;2023-04-28T06:39:25;10.25;;;5.68;;
62990;SDS011;49084;48.204;16.202;2023-04-28T06:41:51;8.77;;;5.50;;
62990;SDS011;49084;48.204;16.202;2023-04-28T06:44:17;18.98;;;6.40;;
62990;SDS011;49084;48.204;16.202;2023-04-28T06:46:43;70.88;;;11.13;;
62990;SDS011;49084;48.204;16.202;2023-04-28T06:49:08;14.23;;;6.45;;
62990;SDS011;49084;48.204;16.202;2023-04-28T06:51:34;60.55;;;9.52;;
62990;SDS011;49084;48.204;16.202;2023-04-28T06:54:00;111.15;;;15.07;;
62990;SDS011;49084;48.204;16.202;2023-04-28T06:56:25;9.23;;;5.20;;
62990;SDS011;49084;48.204;16.202;2023-04-28T06:58:53;17.15;;;5.90;;
62990;SDS011;49084;48.204;16.202;2023-04-28T07:01:20;12.55;;;5.47;;
62990;SDS011;49084;48.204;16.202;2023-04-28T07:03:46;12.13;;;5.82;;
62990;SDS011;49084;48.204;16.202;2023-04-28T07:06:12;7.13;;;4.93;;
62990;SDS011;49084;48.204;16.202;2023-04-28T07:08:56;13.15;;;5.20;;
62990;SDS011;49084;48.204;16.202;2023-04-28T07:11:22;10.27;;;4.85;;
62990;SDS011;49084;48.204;16.202;2023-04-28T07:13:47;10.65;;;5.95;;
62990;SDS011;49084;48.204;16.202;2023-04-28T07:16:15;9.75;;;5.03;;
62990;SDS011;49084;48.204;16.202;2023-04-28T07:18:42;17.88;;;6.32;;
62990;SDS011;49084;48.204;16.202;2023-04-28T07:21:07;15.38;;;4.60;;
62990;SDS011;49084;48.204;16.202;2023-04-28T07:23:33;10.80;;;5.47;;
62990;SDS011;49084;48.204;16.202;2023-04-28T07:25:59;11.13;;;4.40;;
62990;SDS011;49084;48.204;16.202;2023-04-28T07:28:24;14.80;;;5.00;;
62990;SDS011;49084;48.204;16.202;2023-04-28T07:30:50;10.00;;;4.75;;
62990;SDS011;49084;48.204;16.202;2023-04-28T07:33:16;14.43;;;4.60;;
62990;SDS011;49084;48.204;16.202;2023-04-28T07:35:42;8.82;;;4.70;;
62990;SDS011;49084;48.204;16.202;2023-04-28T07:38:07;8.93;;;4.93;;
62990;SDS011;49084;48.204;16.202;2023-04-28T07:40:33;9.88;;;4.22;;
62990;SDS011;49084;48.204;16.202;2023-04-28T07:42:59;8.88;;;3.65;;
62990;SDS011;49084;48.204;16.202;2023-04-28T07:45:25;10.52;;;4.80;;
62990;SDS011;49084;48.204;16.202;2023-04-28T07:47:51;8.18;;;3.72;;
62990;SDS011;49084;48.204;16.202;2023-04-28T07:50:16;10.65;;;4.22;;
62990;SDS011;49084;48.204;16.202;2023-04-28T07:52:42;10.13;;;3.60;;
62990;SDS011;49084;48.204;16.202;2023-04-28T07:55:08;6.93;;;3.97;;
62990;SDS011;49084;48.204;16.202;2023-04-28T07:57:34;15.82;;;4.50;;
62990;SDS011;49084;48.204;16.202;2023-04-28T08:00:00;6.78;;;4.20;;
62990;SDS011;49084;48.204;16.202;2023-04-28T08:02:25;7.10;;;3.83;;
62990;SDS011;49084;48.204;16.202;2023-04-28T08:04:51;5.28;;;4.05;;
62990;SDS011;49084;48.204;16.202;2023-04-28T08:07:17;9.35;;;4.07;;
62990;SDS011;49084;48.204;16.202;2023-04-28T08:09:43;8.93;;;3.65;;
62990;SDS011;49084;48.204;16.202;2023-04-28T08:12:11;13.60;;;4.80;;
62990;SDS011;49084;48.204;16.202;2023-04-28T08:14:37;12.93;;;4.60;;
62990;SDS011;49084;48.204;16.202;2023-04-28T08:17:03;11.00;;;4.00;;
62990;SDS011;49084;48.204;16.202;2023-04-28T08:19:28;11.90;;;3.58;;
62990;SDS011;49084;48.204;16.202;2023-04-28T08:21:54;6.75;;;3.45;;
62990;SDS011;49084;48.204;16.202;2023-04-28T08:24:20;5.78;;;3.80;;
62990;SDS011;49084;48.204;16.202;2023-04-28T08:26:46;4.25;;;3.42;;
62990;SDS011;49084;48.204;16.202;2023-04-28T08:29:11;10.32;;;4.57;;
62990;SDS011;49084;48.204;16.202;2023-04-28T08:31:37;5.75;;;3.78;;
62990;SDS011;49084;48.204;16.202;2023-04-28T08:34:03;8.38;;;3.78;;
62990;SDS011;49084;48.204;16.202;2023-04-28T08:36:28;7.53;;;3.28;;
62990;SDS011;49084;48.204;16.202;2023-04-28T08:38:56;6.65;;;3.08;;
62990;SDS011;49084;48.204;16.202;2023-04-28T08:41:23;10.77;;;3.50;;
62990;SDS011;49084;48.204;16.202;2023-04-28T08:43:53;5.50;;;3.40;;
62990;SDS011;49084;48.204;16.202;2023-04-28T08:46:20;4.80;;;3.40;;
62990;SDS011;49084;48.204;16.202;2023-04-28T08:48:46;8.15;;;3.53;;
62990;SDS011;49084;48.204;16.202;2023-04-28T08:51:22;7.80;;;3.45;;
62990;SDS011;49084;48.204;16.202;2023-04-28T08:53:53;14.07;;;4.38;;
62990;SDS011;49084;48.204;16.202;2023-04-28T08:56:19;16.70;;;3.55;;
62990;SDS011;49084;48.204;16.202;2023-04-28T08:58:48;7.40;;;2.92;;
62990;SDS011;49084;48.204;16.202;2023-04-28T09:01:16;5.38;;;3.63;;
62990;SDS011;49084;48.204;16.202;2023-04-28T09:03:41;5.57;;;3.13;;
62990;SDS011;49084;48.204;16.202;2023-04-28T09:06:07;4.75;;;2.47;;
62990;SDS011;49084;48.204;16.202;2023-04-28T09:08:33;8.50;;;2.95;;
62990;SDS011;49084;48.204;16.202;2023-04-28T09:11:04;14.52;;;3.55;;
62990;SDS011;49084;48.204;16.202;2023-04-28T09:13:34;7.97;;;2.53;;
62990;SDS011;49084;48.204;16.202;2023-04-28T09:16:00;9.13;;;2.70;;
62990;SDS011;49084;48.204;16.202;2023-04-28T09:18:27;7.40;;;2.55;;
62990;SDS011;49084;48.204;16.202;2023-04-28T09:21:06;4.90;;;3.13;;
62990;SDS011;49084;48.204;16.202;2023-04-28T09:23:33;8.95;;;2.58;;
62990;SDS011;49084;48.204;16.202;2023-04-28T09:26:10;8.27;;;3.42;;
62990;SDS011;49084;48.204;16.202;2023-04-28T09:28:35;6.07;;;2.47;;
62990;SDS011;49084;48.204;16.202;2023-04-28T09:31:01;18.85;;;4.53;;
62990;SDS011;49084;48.204;16.202;2023-04-28T09:33:27;14.52;;;3.95;;
62990;SDS011;49084;48.204;16.202;2023-04-28T09:35:53;7.88;;;2.60;;
62990;SDS011;49084;48.204;16.202;2023-04-28T09:38:20;8.32;;;2.53;;
62990;SDS011;49084;48.204;16.202;2023-04-28T09:40:54;5.30;;;2.25;;
62990;SDS011;49084;48.204;16.202;2023-04-28T09:43:29;7.75;;;3.85;;
62990;SDS011;49084;48.204;16.202;2023-04-28T09:45:59;7.28;;;2.95;;
62990;SDS011;49084;48.204;16.202;2023-04-28T09:48:31;9.00;;;3.10;;
62990;SDS011;49084;48.204;16.202;2023-04-28T09:50:58;8.05;;;2.60;;
62990;SDS011;49084;48.204;16.202;2023-04-28T09:53:27;9.30;;;2.97;;
62990;SDS011;49084;48.204;16.202;2023-04-28T09:55:53;28.13;;;3.92;;
62990;SDS011;49084;48.204;16.202;2023-04-28T09:58:21;5.90;;;2.63;;
62990;SDS011;49084;48.204;16.202;2023-04-28T10:00:51;7.13;;;2.45;;
62990;SDS011;49084;48.204;16.202;2023-04-28T10:03:22;6.47;;;2.15;;
62990;SDS011;49084;48.204;16.202;2023-04-28T10:05:52;8.25;;;3.55;;
62990;SDS011;49084;48.204;16.202;2023-04-28T10:08:22;13.25;;;2.75;;
62990;SDS011;49084;48.204;16.202;2023-04-28T10:10:49;2.80;;;1.90;;
62990;SDS011;49084;48.204;16.202;2023-04-28T10:13:18;4.72;;;2.15;;
62990;SDS011;49084;48.204;16.202;2023-04-28T10:15:45;6.28;;;2.50;;
62990;SDS011;49084;48.204;16.202;2023-04-28T10:18:11;6.93;;;2.50;;
62990;SDS011;49084;48.204;16.202;2023-04-28T10:20:39;9.98;;;2.30;;
62990;SDS011;49084;48.204;16.202;2023-04-28T10:25:41;5.03;;;2.00;;
62990;SDS011;49084;48.204;16.202;2023-04-28T10:28:07;4.00;;;2.00;;
62990;SDS011;49084;48.204;16.202;2023-04-28T10:30:34;4.35;;;2.50;;
62990;SDS011;49084;48.204;16.202;2023-04-28T10:38:07;3.97;;;2.00;;
62990;SDS011;49084;48.204;16.202;2023-04-28T10:53:20;4.05;;;2.35;;
62990;SDS011;49084;48.204;16.202;2023-04-28T10:55:46;7.15;;;2.47;;
62990;SDS011;49084;48.204;16.202;2023-04-28T10:58:29;5.22;;;2.42;;
62990;SDS011;49084;48.204;16.202;2023-04-28T11:01:04;5.88;;;2.22;;
62990;SDS011;49084;48.204;16.202;2023-04-28T11:06:23;7.30;;;2.03;;
62990;SDS011;49084;48.204;16.202;2023-04-28T11:08:56;3.85;;;2.00;;
62990;SDS011;49084;48.204;16.202;2023-04-28T11:11:25;3.45;;;1.67;;
62990;SDS011;49084;48.204;16.202;2023-04-28T11:13:52;10.65;;;2.08;;
62990;SDS011;49084;48.204;16.202;2023-04-28T11:21:56;4.32;;;1.85;;
62990;SDS011;49084;48.204;16.202;2023-04-28T11:24:22;3.42;;;1.90;;
62990;SDS011;49084;48.204;16.202;2023-04-28T11:26:50;3.95;;;1.77;;
62990;SDS011;49084;48.204;16.202;2023-04-28T11:29:16;6.57;;;2.10;;
62990;SDS011;49084;48.204;16.202;2023-04-28T11:31:48;3.83;;;1.88;;
62990;SDS011;49084;48.204;16.202;2023-04-28T11:34:18;3.13;;;1.67;;
62990;SDS011;49084;48.204;16.202;2023-04-28T11:36:47;4.90;;;1.63;;
62990;SDS011;49084;48.204;16.202;2023-04-28T11:39:13;2.90;;;1.70;;
62990;SDS011;49084;48.204;16.202;2023-04-28T11:41:40;6.95;;;1.70;;
62990;SDS011;49084;48.204;16.202;2023-04-28T11:44:13;6.45;;;2.00;;
62990;SDS011;49084;48.204;16.202;2023-04-28T11:46:46;5.47;;;1.98;;
62990;SDS011;49084;48.204;16.202;2023-04-28T11:49:15;6.43;;;2.00;;
62990;SDS011;49084;48.204;16.202;2023-04-28T11:51:42;5.68;;;2.08;;
62990;SDS011;49084;48.204;16.202;2023-04-28T11:54:10;3.03;;;1.98;;
62990;SDS011;49084;48.204;16.202;2023-04-28T11:56:39;7.28;;;2.10;;
62990;SDS011;49084;48.204;16.202;2023-04-28T11:59:09;4.82;;;1.98;;
62990;SDS011;49084;48.204;16.202;2023-04-28T12:01:46;5.40;;;1.85;;
62990;SDS011;49084;48.204;16.202;2023-04-28T12:04:27;6.20;;;2.17;;
62990;SDS011;49084;48.204;16.202;2023-04-28T12:09:41;5.35;;;1.80;;
62990;SDS011;49084;48.204;16.202;2023-04-28T12:12:11;4.95;;;2.45;;
62990;SDS011;49084;48.204;16.202;2023-04-28T12:14:57;3.25;;;2.10;;
62990;SDS011;49084;48.204;16.202;2023-04-28T12:19:52;2.58;;;1.67;;
62990;SDS011;49084;48.204;16.202;2023-04-28T12:22:19;12.85;;;2.03;;
62990;SDS011;49084;48.204;16.202;2023-04-28T12:24:45;3.97;;;1.88;;
62990;SDS011;49084;48.204;16.202;2023-04-28T12:27:14;5.85;;;1.67;;
62990;SDS011;49084;48.204;16.202;2023-04-28T12:29:48;7.68;;;2.38;;
62990;SDS011;49084;48.204;16.202;2023-04-28T12:32:15;2.13;;;1.75;;
62990;SDS011;49084;48.204;16.202;2023-04-28T12:34:43;9.73;;;2.13;;
62990;SDS011;49084;48.204;16.202;2023-04-28T12:37:10;2.58;;;1.70;;
62990;SDS011;49084;48.204;16.202;2023-04-28T12:39:37;2.88;;;1.90;;
62990;SDS011;49084;48.204;16.202;2023-04-28T12:42:04;5.82;;;2.03;;
62990;SDS011;49084;48.204;16.202;2023-04-28T12:44:39;5.35;;;1.73;;
62990;SDS011;49084;48.204;16.202;2023-04-28T12:47:05;6.15;;;2.03;;
62990;SDS011;49084;48.204;16.202;2023-04-28T12:49:35;7.32;;;2.45;;
62990;SDS011;49084;48.204;16.202;2023-04-28T12:54:28;7.72;;;2.10;;
62990;SDS011;49084;48.204;16.202;2023-04-28T12:56:53;3.92;;;2.00;;
62990;SDS011;49084;48.204;16.202;2023-04-28T12:59:20;7.78;;;2.00;;
62990;SDS011;49084;48.204;16.202;2023-04-28T13:01:46;5.13;;;2.00;;
62990;SDS011;49084;48.204;16.202;2023-04-28T13:04:12;4.63;;;2.30;;
62990;SDS011;49084;48.204;16.202;2023-04-28T13:06:38;8.30;;;2.42;;
62990;SDS011;49084;48.204;16.202;2023-04-28T13:09:08;3.25;;;2.10;;
62990;SDS011;49084;48.204;16.202;2023-04-28T13:11:37;4.40;;;1.80;;
62990;SDS011;49084;48.204;16.202;2023-04-28T13:14:03;5.22;;;2.13;;
62990;SDS011;49084;48.204;16.202;2023-04-28T13:16:29;5.40;;;2.05;;
62990;SDS011;49084;48.204;16.202;2023-04-28T13:18:55;4.45;;;2.97;;
62990;SDS011;49084;48.204;16.202;2023-04-28T13:21:22;3.15;;;2.15;;
62990;SDS011;49084;48.204;16.202;2023-04-28T13:23:49;4.78;;;2.30;;
62990;SDS011;49084;48.204;16.202;2023-04-28T13:26:14;3.67;;;1.85;;
62990;SDS011;49084;48.204;16.202;2023-04-28T13:28:40;5.45;;;1.80;;
62990;SDS011;49084;48.204;16.202;2023-04-28T13:31:06;3.40;;;1.90;;
62990;SDS011;49084;48.204;16.202;2023-04-28T13:33:32;3.70;;;2.17;;
62990;SDS011;49084;48.204;16.202;2023-04-28T13:35:58;4.88;;;2.00;;
62990;SDS011;49084;48.204;16.202;2023-04-28T13:38:24;4.15;;;2.05;;
62990;SDS011;49084;48.204;16.202;2023-04-28T13:40:50;2.78;;;1.52;;
62990;SDS011;49084;48.204;16.202;2023-04-28T13:43:17;5.90;;;2.13;;
62990;SDS011;49084;48.204;16.202;2023-04-28T13:45:42;7.22;;;2.60;;
62990;SDS011;49084;48.204;16.202;2023-04-28T13:48:08;7.18;;;2.50;;
62990;SDS011;49084;48.204;16.202;2023-04-28T13:50:34;3.88;;;2.20;;
62990;SDS011;49084;48.204;16.202;2023-04-28T13:52:59;6.03;;;3.00;;
62990;SDS011;49084;48.204;16.202;2023-04-28T13:55:25;2.85;;;2.17;;
62990;SDS011;49084;48.204;16.202;2023-04-28T13:57:54;4.18;;;2.15;;
62990;SDS011;49084;48.204;16.202;2023-04-28T14:00:20;4.20;;;2.17;;
62990;SDS011;49084;48.204;16.202;2023-04-28T14:02:46;5.20;;;2.30;;
62990;SDS011;49084;48.204;16.202;2023-04-28T14:05:15;5.32;;;2.25;;
62990;SDS011;49084;48.204;16.202;2023-04-28T14:07:42;6.22;;;2.13;;
62990;SDS011;49084;48.204;16.202;2023-04-28T14:10:08;8.40;;;3.45;;
62990;SDS011;49084;48.204;16.202;2023-04-28T14:12:35;3.72;;;2.00;;
62990;SDS011;49084;48.204;16.202;2023-04-28T14:15:01;5.47;;;2.30;;
62990;SDS011;49084;48.204;16.202;2023-04-28T14:17:27;3.08;;;2.05;;
62990;SDS011;49084;48.204;16.202;2023-04-28T14:19:52;6.05;;;2.78;;
62990;SDS011;49084;48.204;16.202;2023-04-28T14:22:18;5.55;;;2.25;;
62990;SDS011;49084;48.204;16.202;2023-04-28T14:24:44;6.80;;;2.10;;
62990;SDS011;49084;48.204;16.202;2023-04-28T14:27:10;3.33;;;2.03;;
62990;SDS011;49084;48.204;16.202;2023-04-28T14:29:35;5.68;;;2.35;;
62990;SDS011;49084;48.204;16.202;2023-04-28T14:32:01;5.35;;;2.30;;
62990;SDS011;49084;48.204;16.202;2023-04-28T14:34:27;4.20;;;2.33;;
62990;SDS011;49084;48.204;16.202;2023-04-28T14:36:52;4.03;;;2.10;;
62990;SDS011;49084;48.204;16.202;2023-04-28T14:39:18;4.28;;;2.40;;
62990;SDS011;49084;48.204;16.202;2023-04-28T14:41:44;6.93;;;2.42;;
62990;SDS011;49084;48.204;16.202;2023-04-28T14:44:10;6.28;;;2.22;;
62990;SDS011;49084;48.204;16.202;2023-04-28T14:46:35;4.55;;;2.63;;
62990;SDS011;49084;48.204;16.202;2023-04-28T14:49:01;6.32;;;2.50;;
62990;SDS011;49084;48.204;16.202;2023-04-28T14:51:27;3.97;;;2.55;;
62990;SDS011;49084;48.204;16.202;2023-04-28T14:53:53;4.60;;;2.65;;
62990;SDS011;49084;48.204;16.202;2023-04-28T14:56:19;4.97;;;3.28;;
62990;SDS011;49084;48.204;16.202;2023-04-28T14:58:45;8.07;;;2.55;;
62990;SDS011;49084;48.204;16.202;2023-04-28T15:01:11;6.15;;;2.80;;